Data for 03/26/2015

Time Sea-Level Adjusted Pressure Absolute Pressure Temperature Relative Humidity Dew Point   
(mb) (inHg) (mb) (inHg) (C) (F) (%) (C) (F)
00:05 1025 30.27 854 25.22 6.1 43 47 -4.4 24.1
00:10 1025 30.27 854 25.22 6.1 43 47 -4.3 24.3
00:15 1025 30.27 854 25.22 6.1 43 47 -4.3 24.2
00:20 1025 30.27 854 25.22 6.2 43.1 47 -4.3 24.3
00:25 1025 30.27 854 25.22 6.2 43.2 48 -4 24.8
00:30 1025 30.27 854 25.22 6.2 43.2 48 -3.9 25
00:35 1025 30.27 854 25.22 6.3 43.3 49 -3.7 25.4
00:40 1025 30.27 854 25.22 6.5 43.6 49 -3.6 25.6
00:45 1025 30.27 854 25.22 6.6 43.9 49 -3.4 25.8
00:50 1025 30.27 854 25.22 6.7 44.1 48 -3.5 25.8
00:55 1025 30.27 854 25.22 6.8 44.2 48 -3.4 25.9
01:00 1025 30.27 854 25.22 6.7 44.1 49 -3.3 26
01:05 1025 30.27 854 25.22 6.7 44.1 50 -3.1 26.5
01:10 1025 30.27 854 25.22 6.7 44 49 -3.2 26.2
01:15 1025 30.27 854 25.22 6.7 44 50 -3.1 26.5
01:20 1025 30.27 854 25.22 6.7 44 51 -2.8 26.9
01:25 1025 30.27 854 25.22 6.6 43.8 51 -2.7 27.1
01:30 1025 30.27 854 25.22 6.6 43.8 52 -2.5 27.4
01:35 1025 30.27 854 25.22 6.6 43.8 52 -2.5 27.4
01:40 1025 30.27 854 25.22 6.6 43.8 51 -2.7 27.1
01:45 1025 30.27 854 25.22 6.6 43.9 53 -2.3 27.8
01:50 1025 30.27 854 25.22 6.5 43.7 55 -1.9 28.5
01:55 1025 30.27 854 25.22 6.3 43.3 57 -1.6 29.2
02:00 1025 30.27 854 25.22 6.1 42.9 59 -1.3 29.6
02:05 1025 30.27 854 25.22 6 42.7 60 -1.2 29.8
02:10 1025 30.27 854 25.22 5.8 42.4 63 -0.7 30.8
02:15 1025 30.27 854 25.22 5.5 41.9 65 -0.6 30.9
02:20 1025 30.27 855 25.25 5.3 41.5 66 -0.6 30.9
02:25 1025 30.27 854 25.22 5.1 41.2 67 -0.5 31.1
02:30 1025 30.27 854 25.22 5.1 41.2 66 -0.6 30.9
02:35 1025 30.27 854 25.22 5.1 41.2 68 -0.2 31.6
02:40 1025 30.27 854 25.22 4.9 40.8 70 -0.2 31.6
02:45 1025 30.27 854 25.22 4.8 40.6 70 -0.2 31.7
02:50 1025 30.27 854 25.22 4.8 40.6 70 -0.3 31.5
02:55 1025 30.27 854 25.22 4.8 40.7 69 -0.4 31.3
03:00 1025 30.27 854 25.22 4.8 40.7 68 -0.5 31.1
03:05 1025 30.27 854 25.22 4.8 40.6 70 -0.3 31.5
03:10 1025 30.27 854 25.22 4.7 40.4 71 -0.2 31.6
03:15 1025 30.27 854 25.22 4.6 40.2 71 -0.3 31.5
03:20 1025 30.27 854 25.22 4.6 40.3 71 -0.3 31.5
03:25 1025 30.27 854 25.22 4.6 40.3 72 -0.1 31.9
03:30 1025 30.27 854 25.22 4.5 40 72 -0.1 31.8
03:35 1025 30.27 854 25.22 4.4 40 73 -0 32
03:40 1025 30.27 854 25.22 4.4 40 72 -0.1 31.8
03:45 1025 30.27 854 25.22 4.6 40.3 71 -0.3 31.5
03:50 1025 30.27 854 25.22 4.7 40.4 68 -0.6 30.9
03:55 1025 30.27 854 25.22 4.8 40.7 68 -0.5 31.1
04:00 1025 30.27 854 25.22 4.9 40.8 68 -0.6 31
04:05 1025 30.27 854 25.22 4.9 40.9 68 -0.4 31.2
04:10 1025 30.27 854 25.22 4.9 40.8 69 -0.4 31.3
04:15 1025 30.27 854 25.22 4.8 40.7 69 -0.4 31.3
04:20 1025 30.27 854 25.22 4.8 40.6 69 -0.4 31.3
04:25 1025 30.27 854 25.22 4.8 40.6 69 -0.4 31.3
04:30 1025 30.27 854 25.22 4.8 40.6 67 -0.7 30.7
04:35 1025 30.27 854 25.22 4.9 40.8 67 -0.7 30.7
04:40 1025 30.27 854 25.22 4.9 40.8 67 -0.8 30.6
04:45 1025 30.27 854 25.22 4.8 40.7 67 -0.8 30.6
04:50 1025 30.27 854 25.22 4.8 40.7 66 -0.9 30.3
04:55 1025 30.27 854 25.22 4.8 40.7 67 -0.9 30.4
05:00 1025 30.27 854 25.22 4.8 40.7 66 -1 30.1
05:05 1025 30.27 854 25.22 4.9 40.8 66 -0.9 30.3
05:10 1025 30.27 854 25.22 4.9 40.8 66 -0.9 30.4
05:15 1025 30.27 854 25.22 4.9 40.8 66 -0.9 30.4
05:20 1025 30.27 854 25.22 4.9 40.8 66 -0.9 30.3
05:25 1025 30.27 854 25.22 4.9 40.8 66 -0.9 30.3
05:30 1025 30.27 854 25.22 5 40.9 65 -1.1 30
05:35 1025 30.27 854 25.22 5.1 41.1 65 -1 30.3
05:40 1025 30.27 854 25.22 5 41 66 -0.9 30.5
05:45 1025 30.27 854 25.22 4.9 40.9 67 -0.6 30.9
05:50 1025 30.27 854 25.22 4.9 40.8 66 -0.9 30.5
05:55 1025 30.27 854 25.22 4.9 40.8 65 -1 30.2
06:00 1025 30.27 854 25.22 5 40.9 64 -1.3 29.7
06:05 1025 30.27 854 25.22 5.1 41.2 63 -1.4 29.5
06:10 1025 30.27 854 25.22 5.2 41.4 63 -1.2 29.8
06:15 1025 30.27 854 25.22 5.2 41.4 63 -1.3 29.7
06:20 1025 30.27 854 25.22 5.2 41.4 63 -1.2 29.9
06:25 1025 30.27 854 25.22 5.2 41.4 63 -1.1 29.9
06:30 1025 30.27 854 25.22 5.2 41.4 63 -1.1 29.9
06:35 1025 30.27 854 25.22 5.2 41.4 64 -1 30.1
06:40 1025 30.27 854 25.22 5.1 41.3 64 -1.2 29.9
06:45 1025 30.27 854 25.22 5.2 41.3 64 -1 30.1
06:50 1025 30.27 854 25.22 5.2 41.4 64 -1 30.1
06:55 1025 30.27 854 25.22 5.3 41.5 63 -1.1 30
07:00 1025 30.27 854 25.22 5.3 41.6 63 -1.2 29.9
07:05 1025 30.27 854 25.22 5.4 41.8 62 -1.3 29.7
07:10 1025 30.27 854 25.22 5.6 42 61 -1.4 29.4
07:15 1025 30.27 854 25.22 5.7 42.3 61 -1.3 29.7
07:20 1025 30.27 854 25.22 5.8 42.5 60 -1.3 29.7
07:25 1025 30.27 854 25.22 5.9 42.6 60 -1.3 29.7
07:30 1025 30.27 854 25.22 6 42.7 59 -1.3 29.6
07:35 1025 30.27 854 25.22 6.1 43 58 -1.4 29.4
07:40 1025 30.27 854 25.22 6.2 43.2 59 -1.1 29.9
07:45 1025 30.27 854 25.22 6.3 43.4 57 -1.4 29.4
07:50 1025 30.27 854 25.22 6.4 43.6 57 -1.4 29.5
07:55 1025 30.27 855 25.25 6.6 43.8 55 -1.8 28.8
08:00 1025 30.27 854 25.22 6.7 44.1 55 -1.8 28.8
08:05 1025 30.27 854 25.22 6.8 44.3 55 -1.5 29.3
08:10 1025 30.27 854 25.22 6.8 44.2 54 -1.8 28.8
08:15 1025 30.27 854 25.22 6.9 44.5 55 -1.5 29.2
08:20 1025 30.27 854 25.22 6.7 44.1 55 -1.7 29
08:25 1025 30.27 854 25.22 7 44.6 53 -1.8 28.7
08:30 1025 30.27 854 25.22 7.4 45.3 52 -1.7 29
08:35 1025 30.27 854 25.22 7.6 45.7 52 -1.5 29.2
08:40 1025 30.27 854 25.22 7.5 45.5 52 -1.6 29.2
08:45 1025 30.27 854 25.22 7.6 45.7 52 -1.6 29
08:50 1025 30.27 854 25.22 7.8 46 51 -1.7 29
08:55 1025 30.27 854 25.22 7.8 46.1 50 -1.9 28.5
09:00 1025 30.27 854 25.22 7.8 46 51 -1.7 29
09:05 1025 30.27 854 25.22 8 46.4 49 -2 28.5
09:10 1025 30.27 854 25.22 8.5 47.3 48 -1.9 28.6
09:15 1025 30.27 854 25.22 8.8 47.8 48 -1.7 29
09:20 1025 30.27 854 25.22 8.9 48 47 -1.7 28.9
09:25 1025 30.27 855 25.25 9.3 48.7 46 -1.7 28.9
09:30 1025 30.27 855 25.25 9.4 49 46 -1.6 29.2
09:35 1025 30.27 855 25.25 9.5 49.1 46 -1.6 29.1
09:40 1025 30.27 855 25.25 9.6 49.2 46 -1.5 29.3
09:45 1025 30.27 855 25.25 9.7 49.4 46 -1.3 29.6
09:50 1025 30.27 855 25.25 9.5 49 48 -1 30.2
09:55 1025 30.27 855 25.25 9.1 48.4 47 -1.5 29.3
10:00 1025 30.27 855 25.25 9.5 49.1 47 -1.3 29.7
10:05 1025 30.27 855 25.25 9.8 49.7 46 -1.2 29.8
10:10 1025 30.27 855 25.25 10 50 46 -1.1 30
10:15 1025 30.27 855 25.25 9.6 49.3 47 -1 30.2
10:20 1025 30.27 854 25.22 9.9 49.9 47 -0.9 30.3
10:25 1025 30.27 854 25.22 10.3 50.6 45 -1 30.2
10:30 1025 30.27 854 25.22 10.3 50.6 47 -0.3 31.4
10:35 1025 30.27 854 25.22 9.7 49.4 48 -0.9 30.5
10:40 1025 30.27 854 25.22 10.3 50.5 45 -1 30.2
10:45 1025 30.27 854 25.22 10.9 51.7 44 -0.8 30.5
10:50 1025 30.27 854 25.22 11.5 52.6 42 -0.9 30.4
10:55 1025 30.27 854 25.22 11.5 52.7 43 -0.7 30.8
11:00 1025 30.27 854 25.22 11.4 52.6 41 -1.2 29.9
11:05 1025 30.27 854 25.22 11.4 52.4 41 -1.4 29.4
11:10 1025 30.27 854 25.22 11.3 52.4 41 -1.5 29.4
11:15 1025 30.27 854 25.22 11.5 52.7 40 -1.5 29.3
11:20 1025 30.27 854 25.22 11.6 52.9 40 -1.6 29.1
11:25 1025 30.27 854 25.22 11.4 52.4 41 -1.4 29.4
11:30 1025 30.27 854 25.22 11.7 53 39 -1.7 28.9
11:35 1025 30.27 854 25.22 11.8 53.3 40 -1.4 29.4
11:40 1025 30.27 854 25.22 11.9 53.3 39 -1.4 29.4
11:45 1025 30.27 854 25.22 12 53.6 39 -1.4 29.5
11:50 1025 30.27 854 25.22 12.1 53.8 39 -1.4 29.4
11:55 1025 30.27 854 25.22 12.3 54.2 38 -1.7 29
12:00 1025 30.27 854 25.22 12.8 55.1 36 -1.6 29.1
12:05 1025 30.27 854 25.22 12.8 55 37 -1.5 29.3
12:10 1025 30.27 854 25.22 13 55.3 37 -1.4 29.4
12:15 1025 30.27 854 25.22 12.7 54.9 38 -1.1 30.1
12:20 1025 30.27 854 25.22 12.4 54.3 38 -1.4 29.6
12:25 1025 30.27 854 25.22 12.5 54.5 38 -1.3 29.7
12:30 1025 30.27 854 25.22 12.6 54.7 38 -1.2 29.8
12:35 1025 30.27 854 25.22 12.5 54.6 38 -1.3 29.7
12:40 1025 30.27 854 25.22 12.8 55 37 -1.4 29.6
12:45 1024 30.24 854 25.22 12.9 55.3 38 -1 30.1
12:50 1024 30.24 854 25.22 12.8 55.1 38 -1 30.2
12:55 1024 30.24 854 25.22 12.7 54.9 38 -1 30.1
13:00 1024 30.24 854 25.22 12.7 54.9 38 -1.2 29.9
13:05 1025 30.27 854 25.22 12.5 54.5 38 -1.2 29.9
13:10 1024 30.24 854 25.22 12.6 54.8 38 -1.2 29.8
13:15 1024 30.24 854 25.22 12.8 55.1 38 -0.9 30.3
13:20 1024 30.24 854 25.22 12.9 55.1 37 -1.2 29.8
13:25 1024 30.24 854 25.22 13 55.3 38 -1 30.2
13:30 1024 30.24 853 25.19 13.2 55.7 37 -1 30.1
13:35 1024 30.24 853 25.19 13.4 56 37 -1.1 30
13:40 1024 30.24 853 25.19 13.5 56.3 36 -1 30.1
13:45 1024 30.24 853 25.19 13.6 56.4 36 -1.1 30.1
13:50 1024 30.24 853 25.19 13.8 56.8 36 -0.9 30.3
13:55 1024 30.24 853 25.19 14.4 57.9 34 -1.2 29.8
14:00 1024 30.24 853 25.19 14.6 58.2 35 -0.8 30.6
14:05 1024 30.24 853 25.19 14.6 58.3 34 -1.2 29.9
14:10 1024 30.24 853 25.19 14.7 58.5 33 -1.2 29.9
14:15 1024 30.24 853 25.19 15 58.9 33 -0.9 30.4
14:20 1024 30.24 853 25.19 15 59 32 -1.3 29.6
14:25 1024 30.24 853 25.19 15 59 33 -0.9 30.4
14:30 1024 30.24 853 25.19 14.8 58.7 34 -0.8 30.6
14:35 1024 30.24 853 25.19 14.9 58.8 34 -0.8 30.5
14:40 1024 30.24 853 25.19 14.8 58.6 34 -0.8 30.5
14:45 1024 30.24 853 25.19 14.6 58.2 35 -0.5 31.2
14:50 1024 30.24 853 25.19 14.5 58 36 -0.5 31.1
14:55 1024 30.24 853 25.19 14.7 58.4 35 -0.5 31
15:00 1024 30.24 853 25.19 14.7 58.4 35 -0.7 30.7
15:05 1024 30.24 853 25.19 14.7 58.5 35 -0.5 31
15:10 1024 30.24 853 25.19 14.7 58.5 35 -0.5 31.1
15:15 1024 30.24 853 25.19 14.7 58.4 36 -0.3 31.5
15:20 1024 30.24 853 25.19 14.8 58.6 35 -0.4 31.3
15:25 1024 30.24 853 25.19 14.7 58.4 36 -0.2 31.6
15:30 1024 30.24 853 25.19 14.5 58.1 36 -0.4 31.3
15:35 1024 30.24 853 25.19 14.4 57.9 36 -0.2 31.6
15:40 1024 30.24 853 25.19 14.3 57.8 37 -0.1 31.8
15:45 1024 30.24 853 25.19 14.6 58.3 35 -0.4 31.2
15:50 1024 30.24 853 25.19 15.1 59.1 36 0 32.1
15:55 1024 30.24 853 25.19 14.8 58.6 36 -0.2 31.6
16:00 1024 30.24 853 25.19 14.5 58.2 37 0.1 32.1
16:05 1024 30.24 853 25.19 14.6 58.3 37 0.1 32.2
16:10 1024 30.24 853 25.19 14.5 58 37 0 32
16:15 1024 30.24 853 25.19 14.4 57.9 37 0.1 32.2
16:20 1024 30.24 853 25.19 14.5 58.1 37 0.2 32.4
16:25 1024 30.24 853 25.19 14.3 57.8 38 0.2 32.3
16:30 1024 30.24 853 25.19 14.4 57.9 37 0.1 32.3
16:35 1024 30.24 853 25.19 14.7 58.4 37 0.4 32.7
16:40 1024 30.24 853 25.19 14.7 58.4 37 0.2 32.3
16:45 1024 30.24 853 25.19 15 59 35 -0.3 31.4
16:50 1024 30.24 853 25.19 15.5 59.8 34 -0.2 31.7
16:55 1024 30.24 853 25.19 15.1 59.1 35 -0.1 31.8
17:00 1024 30.24 853 25.19 14.9 58.8 36 0.1 32.1
17:05 1024 30.24 853 25.19 14.6 58.3 37 0.1 32.2
17:10 1024 30.24 853 25.19 14.5 58.1 37 0.1 32.2
17:15 1024 30.24 853 25.19 14.4 57.9 37 0.1 32.2
17:20 1024 30.24 853 25.19 14.3 57.7 38 0.3 32.5
17:25 1024 30.24 853 25.19 14.3 57.7 38 0.4 32.7
17:30 1024 30.24 853 25.19 14.4 57.9 38 0.2 32.4
17:35 1024 30.24 853 25.19 14.3 57.7 38 0.3 32.5
17:40 1024 30.24 853 25.19 14.1 57.3 39 0.4 32.8
17:45 1024 30.24 854 25.22 14 57.1 39 0.3 32.6
17:50 1024 30.24 854 25.22 13.9 57 39 0.3 32.5
17:55 1024 30.24 853 25.19 13.7 56.7 40 0.3 32.6
18:00 1024 30.24 854 25.22 13.7 56.6 40 0.2 32.4
18:05 1024 30.24 853 25.19 13.6 56.4 39 0 32.1
18:10 1024 30.24 853 25.19 13.5 56.2 39 -0 32
18:15 1024 30.24 853 25.19 13.4 56.1 39 -0.1 31.8
18:20 1024 30.24 853 25.19 13.3 55.9 40 -0.1 31.8
18:25 1024 30.24 853 25.19 13.2 55.8 40 -0 32
18:30 1024 30.24 853 25.19 13.1 55.6 40 0 32
18:35 1024 30.24 853 25.19 13.1 55.5 40 0 32
18:40 1024 30.24 853 25.19 12.9 55.3 41 0 32
18:45 1024 30.24 853 25.19 12.8 55 42 0.2 32.3
18:50 1024 30.24 853 25.19 12.6 54.7 42 0.1 32.3
18:55 1024 30.24 853 25.19 12.5 54.5 43 0.3 32.6
19:00 1024 30.24 853 25.19 12.4 54.3 43 0.2 32.4
19:05 1024 30.24 853 25.19 12.3 54.1 43 0.2 32.4
19:10 1024 30.24 854 25.22 12.2 54 43 0.2 32.4
19:15 1024 30.24 854 25.22 12.2 53.9 44 0.2 32.4
19:20 1024 30.24 854 25.22 12.1 53.8 44 0.3 32.6
19:25 1025 30.27 854 25.22 12.1 53.7 44 0.3 32.5
19:30 1025 30.27 854 25.22 12 53.6 44 0.3 32.6
19:35 1025 30.27 854 25.22 12 53.5 45 0.4 32.7
19:40 1025 30.27 854 25.22 11.9 53.4 45 0.5 32.8
19:45 1025 30.27 854 25.22 11.9 53.3 45 0.5 32.8
19:50 1025 30.27 854 25.22 11.7 53.1 46 0.5 32.9
19:55 1025 30.27 854 25.22 11.6 52.9 46 0.5 32.9
20:00 1025 30.27 854 25.22 11.5 52.7 47 0.5 33
20:05 1025 30.27 854 25.22 11.1 52 49 0.9 33.6
20:10 1025 30.27 854 25.22 10.6 51.1 50 0.7 33.2
20:15 1025 30.27 854 25.22 10.6 51 50 0.5 32.9
20:20 1025 30.27 854 25.22 10.6 51.1 50 0.6 33.2
20:25 1025 30.27 854 25.22 10.6 51.1 50 0.6 33.1
20:30 1025 30.27 854 25.22 10.7 51.2 50 0.7 33.3
20:35 1025 30.27 854 25.22 10.7 51.2 51 0.9 33.6
20:40 1025 30.27 854 25.22 10.6 51 51 0.9 33.7
20:45 1025 30.27 854 25.22 10.6 51 51 0.9 33.6
20:50 1025 30.27 854 25.22 10.6 51.1 51 1 33.8
20:55 1025 30.27 854 25.22 10.5 51 51 0.9 33.7
21:00 1025 30.27 854 25.22 10.5 50.9 52 1.1 33.9
21:05 1025 30.27 854 25.22 10.5 50.9 52 1 33.9
21:10 1025 30.27 854 25.22 10.5 50.8 52 1 33.7
21:15 1025 30.27 854 25.22 10.5 50.9 52 1 33.9
21:20 1025 30.27 854 25.22 10.5 50.9 52 1 33.8
21:25 1025 30.27 854 25.22 10.5 50.8 52 1.1 33.9
21:30 1025 30.27 854 25.22 10.4 50.8 52 1 33.7
21:35 1025 30.27 854 25.22 10.4 50.7 52 1 33.8
21:40 1025 30.27 854 25.22 10.3 50.5 52 1 33.9
21:45 1025 30.27 854 25.22 10.2 50.4 52 0.8 33.5
21:50 1025 30.27 854 25.22 10.2 50.4 53 1 33.9
21:55 1025 30.27 854 25.22 9.9 49.8 54 1 33.8
22:00 1025 30.27 854 25.22 9.8 49.6 54 1 33.8
22:05 1025 30.27 854 25.22 9.9 49.9 53 0.9 33.7
22:10 1025 30.27 854 25.22 10 50 53 1 33.7
22:15 1025 30.27 854 25.22 9.9 49.9 53 0.9 33.6
22:20 1025 30.27 854 25.22 9.8 49.6 54 0.9 33.6
22:25 1025 30.27 854 25.22 9.6 49.2 55 0.9 33.7
22:30 1025 30.27 854 25.22 9.2 48.6 56 0.9 33.6
22:35 1025 30.27 854 25.22 9 48.3 57 0.9 33.7
22:40 1025 30.27 854 25.22 8.6 47.4 59 0.9 33.7
22:45 1025 30.27 854 25.22 8.1 46.6 60 0.8 33.5
22:50 1025 30.27 854 25.22 8 46.4 60 0.7 33.2
22:55 1025 30.27 854 25.22 8 46.5 60 0.7 33.3
23:00 1025 30.27 854 25.22 8.1 46.5 59 0.5 32.8
23:05 1025 30.27 854 25.22 8.3 46.9 58 0.6 33
23:10 1025 30.27 854 25.22 8.6 47.6 57 0.6 33
23:15 1025 30.27 854 25.22 8.7 47.6 57 0.6 33.1
23:20 1025 30.27 854 25.22 8.5 47.3 58 0.9 33.5
23:25 1025 30.27 854 25.22 8.2 46.8 58 0.4 32.8
23:30 1025 30.27 854 25.22 8.2 46.8 59 0.7 33.3
23:35 1025 30.27 854 25.22 7.9 46.1 60 0.7 33.2
23:40 1025 30.27 854 25.22 7.5 45.4 62 0.6 33.1
23:45 1025 30.27 854 25.22 7.3 45.1 62 0.4 32.8
23:50 1024 30.24 854 25.22 7.4 45.4 62 0.7 33.2
23:55 1024 30.24 854 25.22 7.6 45.7 61 0.6 33.1
24:00 1024 30.24 854 25.22 7.8 46.1 60 0.6 33.1